createdAt,value
2019-04-16T00:00:35.515Z,19.00
2019-04-16T00:03:04.884Z,18.03
2019-04-16T00:05:38.687Z,17.10
2019-04-16T00:08:26.685Z,16.60
2019-04-16T00:11:00.768Z,17.23
2019-04-16T00:13:31.864Z,18.13
2019-04-16T00:16:03.882Z,17.47
2019-04-16T00:18:33.390Z,16.30
2019-04-16T00:21:06.426Z,17.90
2019-04-16T00:23:42.691Z,17.60
2019-04-16T00:26:12.159Z,17.37
2019-04-16T00:28:41.632Z,17.50
2019-04-16T00:31:11.054Z,17.30
2019-04-16T00:33:42.832Z,17.07
2019-04-16T00:36:11.583Z,17.10
2019-04-16T00:38:41.316Z,16.80
2019-04-16T00:41:10.899Z,17.17
2019-04-16T00:43:43.984Z,17.07
2019-04-16T00:46:12.547Z,17.07
2019-04-16T00:48:41.971Z,16.50
2019-04-16T00:51:11.540Z,17.47
2019-04-16T00:53:40.947Z,16.53
2019-04-16T00:56:10.410Z,17.40
2019-04-16T00:58:39.820Z,17.57
2019-04-16T01:01:10.472Z,17.20
2019-04-16T01:03:39.919Z,17.90
2019-04-16T01:06:09.458Z,17.13
2019-04-16T01:08:38.883Z,17.33
2019-04-16T01:11:08.456Z,16.97
2019-04-16T01:13:38.111Z,16.13
2019-04-16T01:16:07.596Z,17.13
2019-04-16T01:18:38.852Z,16.30
2019-04-16T01:21:08.075Z,16.33
2019-04-16T01:23:37.512Z,17.00
2019-04-16T01:26:08.152Z,15.93
2019-04-16T01:28:39.180Z,17.57
2019-04-16T01:31:26.847Z,17.27
2019-04-16T01:33:57.886Z,17.70
2019-04-16T01:36:34.457Z,16.83
2019-04-16T01:39:15.878Z,17.60
2019-04-16T01:41:38.070Z,16.43
2019-04-16T01:44:07.460Z,15.37
2019-04-16T01:46:37.982Z,16.53
2019-04-16T01:49:10.266Z,16.13
2019-04-16T01:51:39.620Z,16.90
2019-04-16T01:54:09.040Z,16.37
2019-04-16T01:56:38.433Z,16.47
2019-04-16T01:59:07.872Z,15.77
2019-04-16T02:01:37.355Z,17.30
2019-04-16T02:04:06.844Z,17.20
2019-04-16T02:06:37.004Z,17.70
2019-04-16T02:09:06.388Z,17.30
2019-04-16T02:11:35.880Z,17.13
2019-04-16T02:14:05.678Z,16.03
2019-04-16T02:16:35.100Z,16.83
2019-04-16T02:19:04.532Z,16.63
2019-04-16T02:21:33.962Z,16.90
2019-04-16T02:24:03.307Z,17.73
2019-04-16T02:26:32.753Z,16.03
2019-04-16T02:29:02.241Z,16.20
2019-04-16T02:31:31.668Z,15.37
2019-04-16T02:34:01.181Z,16.00
2019-04-16T02:36:30.662Z,16.97
2019-04-16T02:39:00.186Z,16.00
2019-04-16T02:41:29.626Z,16.70
2019-04-16T02:43:59.066Z,16.97
2019-04-16T02:46:32.104Z,17.57
2019-04-16T02:48:59.610Z,16.63
2019-04-16T02:51:39.900Z,18.17
2019-04-16T02:54:32.512Z,16.03
2019-04-16T02:57:15.118Z,17.00
2019-04-16T02:59:47.845Z,17.30
2019-04-16T03:02:28.309Z,16.03
2019-04-16T03:04:59.442Z,17.00
2019-04-16T03:07:28.841Z,16.40
2019-04-16T03:10:01.654Z,17.43
2019-04-16T03:12:29.421Z,17.43
2019-04-16T03:15:01.305Z,16.77
2019-04-16T03:17:39.623Z,16.93
2019-04-16T03:20:12.665Z,17.10
2019-04-16T03:22:42.193Z,16.83
2019-04-16T03:25:13.870Z,16.70
2019-04-16T03:27:42.763Z,16.93
2019-04-16T03:30:12.679Z,16.30
2019-04-16T03:32:51.915Z,17.47
2019-04-16T03:35:25.433Z,17.23
2019-04-16T03:37:52.366Z,17.17
2019-04-16T03:40:25.455Z,16.57
2019-04-16T03:42:52.944Z,17.43
2019-04-16T03:45:22.353Z,18.33
2019-04-16T03:47:52.391Z,17.77
2019-04-16T03:50:21.998Z,16.40
2019-04-16T03:52:51.472Z,18.50
2019-04-16T03:55:25.050Z,16.20
2019-04-16T03:57:52.077Z,18.10
2019-04-16T04:00:21.521Z,16.97
2019-04-16T04:02:54.232Z,17.37
2019-04-16T04:05:22.048Z,16.60
2019-04-16T04:07:51.469Z,17.77
2019-04-16T04:10:30.496Z,17.27
2019-04-16T04:12:51.936Z,17.77
2019-04-16T04:15:25.818Z,18.60
2019-04-16T04:17:52.572Z,18.07
2019-04-16T04:20:22.034Z,18.40
2019-04-16T04:22:51.527Z,18.73
2019-04-16T04:25:20.965Z,18.40
2019-04-16T04:27:50.379Z,18.60
2019-04-16T04:30:21.511Z,17.67
2019-04-16T04:32:51.006Z,18.63
2019-04-16T04:35:22.174Z,16.93
2019-04-16T04:37:51.792Z,17.90
2019-04-16T04:40:21.259Z,19.70
2019-04-16T04:42:51.770Z,18.40
2019-04-16T04:45:21.209Z,18.37
2019-04-16T04:47:51.730Z,23.10
2019-04-16T04:50:21.888Z,18.23
2019-04-16T04:52:51.347Z,18.43
2019-04-16T04:55:23.386Z,18.10
2019-04-16T04:57:51.785Z,18.47
2019-04-16T05:00:21.271Z,18.33
2019-04-16T05:02:50.730Z,17.87
2019-04-16T05:05:27.643Z,22.70
2019-04-16T05:07:59.720Z,18.73
2019-04-16T05:10:28.080Z,21.50
2019-04-16T05:12:57.467Z,19.32
2019-04-16T05:15:29.331Z,23.12
2019-04-16T05:17:57.987Z,18.00
2019-04-16T05:20:29.802Z,23.62
2019-04-16T05:22:58.542Z,19.67
2019-04-16T05:25:33.022Z,17.90
2019-04-16T05:27:59.080Z,18.27
2019-04-16T05:30:29.607Z,18.00
2019-04-16T05:32:59.032Z,22.15
2019-04-16T05:35:28.416Z,19.37
2019-04-16T05:38:01.022Z,23.57
2019-04-16T05:40:34.321Z,20.07
2019-04-16T05:43:01.507Z,20.07
2019-04-16T05:45:30.980Z,18.70
2019-04-16T05:48:03.492Z,24.63
2019-04-16T05:50:33.037Z,19.37
2019-04-16T05:53:05.443Z,20.20
2019-04-16T05:55:36.971Z,20.60
2019-04-16T05:58:06.456Z,20.07
2019-04-16T06:00:38.619Z,20.27
2019-04-16T06:03:08.745Z,19.97
2019-04-16T06:05:38.382Z,20.43
2019-04-16T06:08:11.396Z,20.47
2019-04-16T06:10:41.047Z,21.10
2019-04-16T06:13:28.360Z,19.90
2019-04-16T06:16:15.508Z,20.53
2019-04-16T06:18:55.217Z,21.10
2019-04-16T06:21:38.480Z,20.10
2019-04-16T06:24:24.364Z,20.50
2019-04-16T06:27:07.701Z,19.97
2019-04-16T06:29:38.922Z,19.70
2019-04-16T06:32:28.029Z,21.13
2019-04-16T06:35:16.815Z,20.77
2019-04-16T06:38:06.450Z,21.73
2019-04-16T06:40:43.236Z,23.57
2019-04-16T06:43:27.423Z,22.83
2019-04-16T06:46:09.419Z,24.87
2019-04-16T06:48:45.594Z,23.77
2019-04-16T06:51:13.205Z,23.03
2019-04-16T06:53:54.000Z,24.63
2019-04-16T06:56:41.109Z,23.97
2019-04-16T06:59:30.419Z,24.17
2019-04-16T07:02:04.618Z,24.67
2019-04-16T07:04:38.671Z,23.73
2019-04-16T07:07:37.912Z,24.33
2019-04-16T07:10:01.390Z,23.87
2019-04-16T07:12:30.842Z,27.60
2019-04-16T07:15:00.861Z,25.37
2019-04-16T07:17:33.683Z,23.73
2019-04-16T07:20:04.605Z,26.20
2019-04-16T07:22:34.562Z,23.90
2019-04-16T07:25:06.656Z,23.57
2019-04-16T07:27:42.604Z,22.87
2019-04-16T07:30:13.777Z,26.55
2019-04-16T07:32:44.967Z,24.90
2019-04-16T07:35:19.234Z,24.70
2019-04-16T07:37:52.684Z,26.80
2019-04-16T07:40:40.792Z,23.60
2019-04-16T07:43:24.582Z,27.13
2019-04-16T07:46:10.732Z,23.67
2019-04-16T07:48:44.687Z,24.47
2019-04-16T07:51:30.486Z,23.70
2019-04-16T07:54:13.513Z,22.93
2019-04-16T07:56:44.780Z,23.83
2019-04-16T07:59:14.202Z,22.87
2019-04-16T08:01:44.097Z,25.32
2019-04-16T08:04:19.075Z,25.50
2019-04-16T08:06:47.207Z,23.67
2019-04-16T08:09:16.932Z,23.77
2019-04-16T08:11:46.495Z,23.50
2019-04-16T08:14:15.928Z,24.80
2019-04-16T08:16:47.695Z,25.40
2019-04-16T08:19:16.487Z,25.07
2019-04-16T08:21:46.018Z,24.23
2019-04-16T08:24:24.399Z,24.63
2019-04-16T08:26:52.304Z,26.10
2019-04-16T08:29:21.719Z,25.03
2019-04-16T08:31:51.178Z,24.57
2019-04-16T08:34:21.680Z,22.10
2019-04-16T08:36:51.188Z,23.67
2019-04-16T08:39:20.708Z,23.13
2019-04-16T08:41:52.545Z,22.33
2019-04-16T08:44:21.263Z,24.00
2019-04-16T08:46:50.801Z,23.63
2019-04-16T08:49:22.501Z,23.77
2019-04-16T08:51:51.345Z,24.10
2019-04-16T08:54:20.954Z,25.03
2019-04-16T08:56:50.457Z,25.97
2019-04-16T08:59:19.876Z,24.90
2019-04-16T09:01:51.397Z,24.23
2019-04-16T09:04:20.638Z,23.90
2019-04-16T09:06:50.150Z,25.67
2019-04-16T09:09:27.067Z,23.30
2019-04-16T09:11:58.132Z,26.47
2019-04-16T09:14:29.244Z,24.00
2019-04-16T09:17:12.664Z,24.60
2019-04-16T09:19:43.833Z,24.23
2019-04-16T09:22:16.769Z,24.03
2019-04-16T09:24:46.135Z,24.53
2019-04-16T09:27:28.608Z,25.07
2019-04-16T09:29:56.105Z,21.83
2019-04-16T09:32:28.440Z,22.87
2019-04-16T09:35:20.009Z,25.67
2019-04-16T09:37:53.212Z,24.60
2019-04-16T09:40:36.499Z,23.33
2019-04-16T09:43:17.563Z,21.60
2019-04-16T09:45:41.820Z,22.57
2019-04-16T09:48:11.330Z,21.27
2019-04-16T09:50:46.564Z,20.72
2019-04-16T09:53:12.322Z,20.20
2019-04-16T09:55:41.777Z,20.83
2019-04-16T09:58:12.857Z,21.80
2019-04-16T10:00:47.226Z,20.92
2019-04-16T10:03:37.684Z,21.30
2019-04-16T10:06:07.160Z,19.40
2019-04-16T10:08:36.602Z,20.40
2019-04-16T10:11:06.493Z,22.33
2019-04-16T10:13:36.523Z,22.77
2019-04-16T10:16:07.445Z,21.97
2019-04-16T10:18:36.834Z,20.07
2019-04-16T10:21:06.241Z,21.00
2019-04-16T10:23:37.438Z,21.97
2019-04-16T10:26:06.902Z,20.73
2019-04-16T10:28:43.787Z,21.40
2019-04-16T10:31:14.924Z,22.17
2019-04-16T10:33:44.467Z,20.73
2019-04-16T10:36:13.851Z,20.37
2019-04-16T10:39:01.576Z,21.93
2019-04-16T10:41:46.279Z,21.03
2019-04-16T10:44:20.423Z,22.32
2019-04-16T10:46:51.584Z,21.25
2019-04-16T10:49:22.692Z,19.03
2019-04-16T10:52:02.662Z,20.77
2019-04-16T10:54:42.724Z,19.97
2019-04-16T10:57:30.281Z,20.07
2019-04-16T11:00:05.701Z,20.10
2019-04-16T11:02:37.450Z,19.32
2019-04-16T11:05:19.295Z,19.27
2019-04-16T11:07:50.586Z,19.77
2019-04-16T11:10:20.220Z,18.77
2019-04-16T11:12:49.763Z,16.83
2019-04-16T11:15:24.734Z,17.67
2019-04-16T11:17:54.080Z,16.90
2019-04-16T11:20:23.778Z,16.33
2019-04-16T11:22:53.405Z,18.97
2019-04-16T11:25:22.943Z,15.97
2019-04-16T11:27:52.350Z,16.83
2019-04-16T11:30:23.522Z,17.60
2019-04-16T11:32:53.452Z,17.30
2019-04-16T11:35:23.267Z,19.37
2019-04-16T11:37:52.844Z,18.00
2019-04-16T11:40:22.355Z,18.07
2019-04-16T11:42:52.879Z,17.07
2019-04-16T11:45:22.378Z,17.27
2019-04-16T11:47:51.885Z,15.40
2019-04-16T11:50:21.455Z,18.17
2019-04-16T11:52:50.962Z,18.00
2019-04-16T11:55:20.443Z,17.70
2019-04-16T11:57:49.906Z,18.50
2019-04-16T12:00:35.821Z,18.40
2019-04-16T12:03:10.144Z,18.90
2019-04-16T12:05:41.474Z,17.90
2019-04-16T12:08:21.445Z,17.73
2019-04-16T12:10:58.490Z,15.17
2019-04-16T12:13:35.696Z,14.97
2019-04-16T12:16:24.373Z,16.10
2019-04-16T12:18:55.642Z,15.83
2019-04-16T12:21:41.995Z,14.97
2019-04-16T12:24:18.779Z,14.87
2019-04-16T12:26:59.924Z,14.73
2019-04-16T12:29:47.436Z,15.80
2019-04-16T12:32:26.860Z,14.23
2019-04-16T12:35:01.945Z,13.30
2019-04-16T12:37:50.859Z,15.20
2019-04-16T12:40:21.842Z,15.07
2019-04-16T12:43:14.741Z,15.93
2019-04-16T12:45:43.765Z,13.87
2019-04-16T12:48:14.897Z,13.77
2019-04-16T12:51:04.093Z,16.17
2019-04-16T12:53:47.363Z,17.70
2019-04-16T12:56:18.520Z,16.63
2019-04-16T12:58:52.571Z,16.43
2019-04-16T13:01:26.374Z,17.23
2019-04-16T13:04:00.293Z,16.20
2019-04-16T13:06:43.517Z,15.60
2019-04-16T13:09:20.196Z,15.10
2019-04-16T13:11:54.095Z,14.80
2019-04-16T13:14:27.905Z,13.20
2019-04-16T13:17:04.998Z,13.50
2019-04-16T13:19:52.595Z,14.43
2019-04-16T13:22:39.825Z,14.87
2019-04-16T13:25:16.961Z,14.40
2019-04-16T13:27:47.897Z,14.07
2019-04-16T13:30:18.380Z,14.50
2019-04-16T13:32:47.865Z,16.43
2019-04-16T13:35:17.312Z,14.47
2019-04-16T13:37:46.806Z,13.03
2019-04-16T13:40:16.976Z,14.00
2019-04-16T13:42:46.450Z,13.97
2019-04-16T13:45:25.686Z,13.40
2019-04-16T13:47:55.918Z,13.37
2019-04-16T13:50:26.038Z,15.23
2019-04-16T13:52:57.123Z,18.10
2019-04-16T13:55:30.872Z,13.47
2019-04-16T13:58:17.537Z,12.63
2019-04-16T14:00:49.456Z,13.23
2019-04-16T14:03:20.796Z,12.83
2019-04-16T14:05:51.685Z,12.83
2019-04-16T14:08:21.182Z,12.00
2019-04-16T14:10:50.643Z,12.03
2019-04-16T14:13:20.200Z,12.57
2019-04-16T14:15:49.640Z,13.93
2019-04-16T14:18:21.779Z,13.37
2019-04-16T14:20:50.209Z,11.10
2019-04-16T14:23:19.609Z,11.73
2019-04-16T14:25:49.128Z,12.47
2019-04-16T14:28:18.529Z,12.50
2019-04-16T14:30:49.307Z,13.93
2019-04-16T14:33:27.045Z,12.20
2019-04-16T14:35:56.682Z,12.17
2019-04-16T14:38:36.434Z,12.00
2019-04-16T14:41:06.066Z,12.10
2019-04-16T14:43:37.109Z,12.50
2019-04-16T14:46:08.752Z,13.23
2019-04-16T14:48:42.456Z,12.87
2019-04-16T14:51:08.764Z,13.07
2019-04-16T14:53:45.690Z,13.07
2019-04-16T14:56:32.111Z,13.03
2019-04-16T14:59:08.953Z,12.73
2019-04-16T15:01:45.802Z,13.73
2019-04-16T15:04:28.860Z,12.20
2019-04-16T15:07:02.841Z,14.00
2019-04-16T15:09:43.116Z,12.60
2019-04-16T15:12:14.182Z,11.60
2019-04-16T15:14:47.965Z,11.80
2019-04-16T15:17:21.983Z,12.77
2019-04-16T15:19:53.064Z,12.07
2019-04-16T15:22:41.886Z,13.17
2019-04-16T15:25:27.880Z,13.27
2019-04-16T15:28:01.763Z,12.97
2019-04-16T15:30:32.781Z,12.60
2019-04-16T15:33:21.787Z,11.27
2019-04-16T15:35:58.801Z,13.53
2019-04-16T15:38:41.579Z,12.87
2019-04-16T15:41:27.651Z,12.73
2019-04-16T15:44:10.662Z,15.77
2019-04-16T15:46:56.815Z,13.33
2019-04-16T15:49:30.822Z,13.17
2019-04-16T15:52:09.935Z,12.70
2019-04-16T15:54:40.223Z,13.70
2019-04-16T15:57:24.314Z,13.03
2019-04-16T15:59:55.500Z,11.67
2019-04-16T16:02:45.430Z,12.77
2019-04-16T16:05:16.858Z,13.07
2019-04-16T16:07:47.949Z,12.00
2019-04-16T16:10:19.023Z,13.27
2019-04-16T16:12:50.973Z,12.80
2019-04-16T16:15:19.621Z,13.30
2019-04-16T16:17:49.079Z,13.10
2019-04-16T16:20:18.574Z,13.30
2019-04-16T16:22:48.020Z,12.80
2019-04-16T16:25:17.535Z,13.33
2019-04-16T16:27:47.322Z,14.83
2019-04-16T16:30:17.025Z,14.37
2019-04-16T16:32:46.470Z,15.80
2019-04-16T16:35:17.787Z,15.97
2019-04-16T16:37:47.009Z,15.63
2019-04-16T16:40:16.470Z,15.33
2019-04-16T16:42:46.052Z,14.30
2019-04-16T16:45:15.641Z,14.07
2019-04-16T16:47:45.188Z,15.90
2019-04-16T16:50:14.968Z,14.07
2019-04-16T16:53:01.186Z,13.20
2019-04-16T16:55:37.999Z,14.85
2019-04-16T16:58:09.016Z,13.83
2019-04-16T17:00:46.024Z,13.43
2019-04-16T17:03:19.861Z,13.67
2019-04-16T17:05:50.047Z,14.97
2019-04-16T17:08:20.347Z,17.00
2019-04-16T17:10:49.802Z,16.40
2019-04-16T17:13:21.244Z,16.80
2019-04-16T17:15:50.170Z,17.03
2019-04-16T17:18:19.643Z,17.43
2019-04-16T17:20:50.424Z,16.00
2019-04-16T17:23:20.070Z,14.90
2019-04-16T17:25:51.039Z,16.48
2019-04-16T17:28:20.496Z,16.23
2019-04-16T17:30:49.896Z,15.83
2019-04-16T17:33:19.444Z,17.27
2019-04-16T17:35:48.958Z,16.07
2019-04-16T17:38:18.582Z,14.77
2019-04-16T17:40:58.629Z,15.43
2019-04-16T17:43:42.273Z,16.03
2019-04-16T17:46:25.390Z,16.77
2019-04-16T17:48:59.157Z,16.80
2019-04-16T17:51:32.795Z,16.17
2019-04-16T17:54:03.855Z,15.17
2019-04-16T17:56:51.832Z,16.03
2019-04-16T17:59:29.475Z,17.50
2019-04-16T18:02:01.325Z,15.90
2019-04-16T18:04:34.564Z,16.43
2019-04-16T18:07:05.659Z,16.20
2019-04-16T18:09:42.683Z,16.43
2019-04-16T18:12:22.663Z,16.70
2019-04-16T18:14:53.885Z,16.33
2019-04-16T18:17:47.161Z,15.47
2019-04-16T18:20:26.083Z,16.43
2019-04-16T18:23:02.873Z,16.83
2019-04-16T18:25:56.756Z,17.93
2019-04-16T18:28:26.150Z,16.00
2019-04-16T18:30:57.319Z,17.03
2019-04-16T18:33:31.296Z,16.13
2019-04-16T18:36:05.520Z,16.63
2019-04-16T18:38:42.574Z,16.10
2019-04-16T18:41:27.494Z,17.10
2019-04-16T18:43:59.644Z,17.17
2019-04-16T18:46:46.820Z,16.63
2019-04-16T18:49:18.212Z,16.10
2019-04-16T18:51:47.863Z,16.83
2019-04-16T18:54:17.268Z,16.27
2019-04-16T18:56:46.679Z,16.57
2019-04-16T18:59:16.121Z,16.57
2019-04-16T19:01:47.182Z,17.40
2019-04-16T19:04:16.566Z,16.80
2019-04-16T19:06:46.066Z,16.20
2019-04-16T19:09:15.580Z,16.83
2019-04-16T19:11:45.187Z,17.17
2019-04-16T19:14:14.602Z,16.63
2019-04-16T19:16:43.984Z,17.90
2019-04-16T19:19:14.616Z,17.23
2019-04-16T19:21:44.071Z,16.57
2019-04-16T19:24:13.566Z,16.17
2019-04-16T19:26:43.030Z,17.03
2019-04-16T19:29:14.816Z,17.53
2019-04-16T19:31:44.590Z,17.53
2019-04-16T19:34:14.040Z,17.60
2019-04-16T19:36:43.570Z,16.60
2019-04-16T19:39:15.184Z,18.40
2019-04-16T19:41:45.326Z,19.35
2019-04-16T19:44:14.728Z,18.75
2019-04-16T19:46:45.926Z,19.02
2019-04-16T19:49:15.274Z,18.00
2019-04-16T19:51:44.652Z,19.77
2019-04-16T19:54:14.082Z,19.85
2019-04-16T19:56:43.566Z,19.20
2019-04-16T19:59:12.999Z,18.17
2019-04-16T20:01:45.286Z,19.07
2019-04-16T20:04:15.040Z,18.33
2019-04-16T20:06:44.590Z,19.93
2019-04-16T20:09:14.045Z,19.43
2019-04-16T20:11:45.108Z,19.90
2019-04-16T20:14:14.587Z,20.30
2019-04-16T20:16:43.998Z,19.57
2019-04-16T20:19:13.430Z,21.13
2019-04-16T20:21:42.886Z,19.37
2019-04-16T20:24:12.313Z,20.30
2019-04-16T20:26:41.788Z,20.93
2019-04-16T20:29:11.209Z,20.10
2019-04-16T20:31:40.561Z,20.10
2019-04-16T20:34:12.526Z,20.23
2019-04-16T20:36:41.097Z,20.40
2019-04-16T20:39:10.534Z,19.77
2019-04-16T20:41:40.418Z,18.57
2019-04-16T20:44:09.844Z,17.53
2019-04-16T20:46:39.264Z,18.53
2019-04-16T20:49:10.593Z,17.53
2019-04-16T20:51:39.775Z,18.10
2019-04-16T20:54:12.880Z,18.17
2019-04-16T20:56:40.691Z,20.17
2019-04-16T20:59:10.281Z,17.97
2019-04-16T21:01:39.914Z,19.77
2019-04-16T21:04:09.281Z,18.67
2019-04-16T21:06:41.839Z,18.37
2019-04-16T21:09:09.697Z,19.63
2019-04-16T21:11:41.683Z,18.50
2019-04-16T21:14:11.413Z,18.80
2019-04-16T21:16:40.811Z,18.07
2019-04-16T21:19:22.079Z,18.27
2019-04-16T21:21:41.152Z,19.57
2019-04-16T21:24:13.539Z,19.00
2019-04-16T21:26:41.587Z,19.07
2019-04-16T21:29:15.451Z,18.33
2019-04-16T21:31:52.588Z,18.83
2019-04-16T21:34:24.964Z,17.37
2019-04-16T21:36:59.372Z,18.07
2019-04-16T21:39:33.433Z,17.80
2019-04-16T21:42:03.436Z,16.43
2019-04-16T21:44:33.160Z,15.97
2019-04-16T21:47:02.481Z,16.23
2019-04-16T21:49:38.990Z,15.80
2019-04-16T21:52:08.952Z,16.17
2019-04-16T21:54:39.269Z,16.37
2019-04-16T21:57:09.111Z,15.67
2019-04-16T21:59:39.795Z,16.00
2019-04-16T22:02:13.692Z,16.37
2019-04-16T22:04:42.711Z,17.17
2019-04-16T22:07:13.165Z,17.90
2019-04-16T22:09:42.652Z,17.83
2019-04-16T22:12:15.194Z,17.80
2019-04-16T22:14:43.528Z,16.80
2019-04-16T22:17:14.015Z,15.70
2019-04-16T22:19:53.835Z,16.27
2019-04-16T22:22:15.017Z,16.80
2019-04-16T22:24:45.114Z,17.00
2019-04-16T22:27:14.487Z,16.67
2019-04-16T22:29:47.256Z,17.43
2019-04-16T22:32:14.986Z,15.97
2019-04-16T22:34:44.334Z,17.10
2019-04-16T22:37:13.707Z,16.57
2019-04-16T22:39:53.788Z,17.33
2019-04-16T22:42:30.721Z,17.00
2019-04-16T22:45:17.063Z,17.93
2019-04-16T22:47:48.038Z,16.83
2019-04-16T22:50:17.555Z,17.87
2019-04-16T22:52:46.931Z,17.10
2019-04-16T22:55:16.234Z,17.10
2019-04-16T22:57:45.573Z,16.40
2019-04-16T23:00:19.243Z,18.47
2019-04-16T23:02:49.016Z,16.90
2019-04-16T23:05:18.532Z,17.83
2019-04-16T23:07:48.396Z,16.93
2019-04-16T23:10:20.842Z,18.17
2019-04-16T23:12:48.851Z,17.57
2019-04-16T23:15:18.295Z,16.47
2019-04-16T23:17:47.678Z,17.33
2019-04-16T23:20:28.553Z,18.13
2019-04-16T23:22:48.086Z,18.10
2019-04-16T23:25:17.473Z,16.13
2019-04-16T23:27:46.911Z,16.33
2019-04-16T23:30:18.457Z,17.10
2019-04-16T23:32:47.500Z,15.40
2019-04-16T23:35:16.881Z,15.17
2019-04-16T23:37:46.181Z,16.93
2019-04-16T23:40:15.507Z,17.07
2019-04-16T23:43:02.972Z,16.47
2019-04-16T23:45:37.005Z,15.63
2019-04-16T23:48:08.073Z,16.73
2019-04-16T23:50:45.704Z,16.83
2019-04-16T23:53:26.201Z,16.97
2019-04-16T23:55:57.233Z,17.13
2019-04-16T23:58:30.976Z,17.27
